sensor_id;sensor_type;location;lat;lon;timestamp;P1;durP1;ratioP1;P2;durP2;ratioP2
56343;SDS011;42245;42.058;24.700;2023-08-08T00:01:47;5.13;;;2.78;;
56343;SDS011;42245;42.058;24.700;2023-08-08T00:04:13;4.18;;;2.25;;
56343;SDS011;42245;42.058;24.700;2023-08-08T00:06:38;3.03;;;2.50;;
56343;SDS011;42245;42.058;24.700;2023-08-08T00:09:03;4.63;;;2.50;;
56343;SDS011;42245;42.058;24.700;2023-08-08T00:11:29;4.47;;;2.60;;
56343;SDS011;42245;42.058;24.700;2023-08-08T00:13:55;7.63;;;2.53;;
56343;SDS011;42245;42.058;24.700;2023-08-08T00:16:21;4.50;;;2.42;;
56343;SDS011;42245;42.058;24.700;2023-08-08T00:18:47;4.03;;;2.22;;
56343;SDS011;42245;42.058;24.700;2023-08-08T00:21:14;4.43;;;2.50;;
56343;SDS011;42245;42.058;24.700;2023-08-08T00:23:40;2.58;;;2.20;;
56343;SDS011;42245;42.058;24.700;2023-08-08T00:26:05;2.40;;;2.00;;
56343;SDS011;42245;42.058;24.700;2023-08-08T00:28:31;3.22;;;2.58;;
56343;SDS011;42245;42.058;24.700;2023-08-08T00:30:56;5.55;;;2.47;;
56343;SDS011;42245;42.058;24.700;2023-08-08T00:33:21;3.97;;;2.28;;
56343;SDS011;42245;42.058;24.700;2023-08-08T00:35:47;3.25;;;1.92;;
56343;SDS011;42245;42.058;24.700;2023-08-08T00:38:12;4.10;;;2.05;;
56343;SDS011;42245;42.058;24.700;2023-08-08T00:40:37;2.22;;;1.73;;
56343;SDS011;42245;42.058;24.700;2023-08-08T00:43:03;2.42;;;1.85;;
56343;SDS011;42245;42.058;24.700;2023-08-08T00:45:28;2.95;;;1.80;;
56343;SDS011;42245;42.058;24.700;2023-08-08T00:47:54;2.80;;;1.80;;
56343;SDS011;42245;42.058;24.700;2023-08-08T00:50:19;2.55;;;1.90;;
56343;SDS011;42245;42.058;24.700;2023-08-08T00:52:45;2.35;;;1.88;;
56343;SDS011;42245;42.058;24.700;2023-08-08T00:55:11;3.28;;;1.70;;
56343;SDS011;42245;42.058;24.700;2023-08-08T00:57:37;1.85;;;1.60;;
56343;SDS011;42245;42.058;24.700;2023-08-08T01:00:06;3.10;;;1.70;;
56343;SDS011;42245;42.058;24.700;2023-08-08T01:02:34;2.03;;;1.70;;
56343;SDS011;42245;42.058;24.700;2023-08-08T01:04:59;2.75;;;1.52;;
56343;SDS011;42245;42.058;24.700;2023-08-08T01:07:29;2.53;;;1.40;;
56343;SDS011;42245;42.058;24.700;2023-08-08T01:10:03;1.50;;;1.20;;
56343;SDS011;42245;42.058;24.700;2023-08-08T01:12:33;3.08;;;1.42;;
56343;SDS011;42245;42.058;24.700;2023-08-08T01:15:02;1.65;;;1.50;;
56343;SDS011;42245;42.058;24.700;2023-08-08T01:17:29;3.17;;;1.50;;
56343;SDS011;42245;42.058;24.700;2023-08-08T01:19:55;1.67;;;1.30;;
56343;SDS011;42245;42.058;24.700;2023-08-08T01:22:23;1.92;;;1.40;;
56343;SDS011;42245;42.058;24.700;2023-08-08T01:24:51;1.50;;;1.17;;
56343;SDS011;42245;42.058;24.700;2023-08-08T01:27:17;1.88;;;1.23;;
56343;SDS011;42245;42.058;24.700;2023-08-08T01:29:42;1.75;;;1.38;;
56343;SDS011;42245;42.058;24.700;2023-08-08T01:32:08;1.73;;;1.38;;
56343;SDS011;42245;42.058;24.700;2023-08-08T01:34:34;2.15;;;1.10;;
56343;SDS011;42245;42.058;24.700;2023-08-08T01:37:07;1.88;;;1.40;;
56343;SDS011;42245;42.058;24.700;2023-08-08T01:39:39;1.85;;;1.33;;
56343;SDS011;42245;42.058;24.700;2023-08-08T01:42:06;2.35;;;1.33;;
56343;SDS011;42245;42.058;24.700;2023-08-08T01:44:31;1.70;;;1.40;;
56343;SDS011;42245;42.058;24.700;2023-08-08T01:46:57;1.50;;;1.40;;
56343;SDS011;42245;42.058;24.700;2023-08-08T01:49:23;3.13;;;1.65;;
56343;SDS011;42245;42.058;24.700;2023-08-08T01:51:48;2.03;;;1.73;;
56343;SDS011;42245;42.058;24.700;2023-08-08T01:54:15;2.38;;;1.77;;
56343;SDS011;42245;42.058;24.700;2023-08-08T01:56:41;1.77;;;1.48;;
56343;SDS011;42245;42.058;24.700;2023-08-08T01:59:06;2.22;;;1.60;;
56343;SDS011;42245;42.058;24.700;2023-08-08T02:01:31;6.85;;;1.67;;
56343;SDS011;42245;42.058;24.700;2023-08-08T02:03:57;5.20;;;1.60;;
56343;SDS011;42245;42.058;24.700;2023-08-08T02:06:22;1.98;;;1.50;;
56343;SDS011;42245;42.058;24.700;2023-08-08T02:08:48;3.42;;;1.70;;
56343;SDS011;42245;42.058;24.700;2023-08-08T02:11:13;1.50;;;1.20;;
56343;SDS011;42245;42.058;24.700;2023-08-08T02:13:39;2.88;;;1.58;;
56343;SDS011;42245;42.058;24.700;2023-08-08T02:16:04;1.95;;;1.60;;
56343;SDS011;42245;42.058;24.700;2023-08-08T02:18:29;2.38;;;1.70;;
56343;SDS011;42245;42.058;24.700;2023-08-08T02:20:55;1.95;;;1.50;;
56343;SDS011;42245;42.058;24.700;2023-08-08T02:23:20;3.15;;;1.45;;
56343;SDS011;42245;42.058;24.700;2023-08-08T02:25:46;3.22;;;1.58;;
56343;SDS011;42245;42.058;24.700;2023-08-08T02:28:11;2.13;;;1.40;;
56343;SDS011;42245;42.058;24.700;2023-08-08T02:30:37;87.20;;;4.75;;
56343;SDS011;42245;42.058;24.700;2023-08-08T02:33:03;3.15;;;1.60;;
56343;SDS011;42245;42.058;24.700;2023-08-08T02:35:28;3.17;;;1.20;;
56343;SDS011;42245;42.058;24.700;2023-08-08T02:37:54;5.47;;;1.63;;
56343;SDS011;42245;42.058;24.700;2023-08-08T02:40:20;7.03;;;1.40;;
56343;SDS011;42245;42.058;24.700;2023-08-08T02:42:48;1.88;;;1.23;;
56343;SDS011;42245;42.058;24.700;2023-08-08T02:45:14;3.05;;;1.50;;
56343;SDS011;42245;42.058;24.700;2023-08-08T02:47:39;2.22;;;1.50;;
56343;SDS011;42245;42.058;24.700;2023-08-08T02:50:05;3.63;;;1.50;;
56343;SDS011;42245;42.058;24.700;2023-08-08T02:52:30;2.10;;;1.58;;
56343;SDS011;42245;42.058;24.700;2023-08-08T02:54:56;2.25;;;1.40;;
56343;SDS011;42245;42.058;24.700;2023-08-08T02:57:21;1.55;;;1.38;;
56343;SDS011;42245;42.058;24.700;2023-08-08T02:59:46;2.10;;;1.52;;
56343;SDS011;42245;42.058;24.700;2023-08-08T03:02:12;2.47;;;1.48;;
56343;SDS011;42245;42.058;24.700;2023-08-08T03:04:37;1.40;;;1.23;;
56343;SDS011;42245;42.058;24.700;2023-08-08T03:07:03;2.00;;;1.30;;
56343;SDS011;42245;42.058;24.700;2023-08-08T03:09:29;4.78;;;1.30;;
56343;SDS011;42245;42.058;24.700;2023-08-08T03:11:55;1.48;;;1.20;;
56343;SDS011;42245;42.058;24.700;2023-08-08T03:14:20;2.00;;;1.30;;
56343;SDS011;42245;42.058;24.700;2023-08-08T03:16:46;1.90;;;1.30;;
56343;SDS011;42245;42.058;24.700;2023-08-08T03:19:11;3.13;;;1.17;;
56343;SDS011;42245;42.058;24.700;2023-08-08T03:21:36;1.98;;;1.40;;
56343;SDS011;42245;42.058;24.700;2023-08-08T03:24:02;9.43;;;1.10;;
56343;SDS011;42245;42.058;24.700;2023-08-08T03:26:27;1.63;;;1.30;;
56343;SDS011;42245;42.058;24.700;2023-08-08T03:28:53;1.10;;;1.00;;
56343;SDS011;42245;42.058;24.700;2023-08-08T03:31:19;3.22;;;1.20;;
56343;SDS011;42245;42.058;24.700;2023-08-08T03:33:45;2.58;;;1.20;;
56343;SDS011;42245;42.058;24.700;2023-08-08T03:36:11;3.60;;;1.40;;
56343;SDS011;42245;42.058;24.700;2023-08-08T03:38:36;1.88;;;1.20;;
56343;SDS011;42245;42.058;24.700;2023-08-08T03:41:03;2.72;;;0.90;;
56343;SDS011;42245;42.058;24.700;2023-08-08T03:43:29;1.70;;;1.00;;
56343;SDS011;42245;42.058;24.700;2023-08-08T03:45:54;3.95;;;0.90;;
56343;SDS011;42245;42.058;24.700;2023-08-08T03:48:20;1.77;;;0.95;;
56343;SDS011;42245;42.058;24.700;2023-08-08T03:50:45;1.13;;;1.00;;
56343;SDS011;42245;42.058;24.700;2023-08-08T03:53:11;1.85;;;1.20;;
56343;SDS011;42245;42.058;24.700;2023-08-08T03:55:37;1.08;;;0.95;;
56343;SDS011;42245;42.058;24.700;2023-08-08T03:58:03;1.27;;;1.02;;
56343;SDS011;42245;42.058;24.700;2023-08-08T04:00:28;2.75;;;1.02;;
56343;SDS011;42245;42.058;24.700;2023-08-08T04:02:54;1.35;;;1.00;;
56343;SDS011;42245;42.058;24.700;2023-08-08T04:05:19;0.90;;;0.90;;
56343;SDS011;42245;42.058;24.700;2023-08-08T04:07:44;1.80;;;1.00;;
56343;SDS011;42245;42.058;24.700;2023-08-08T04:10:10;2.40;;;1.20;;
56343;SDS011;42245;42.058;24.700;2023-08-08T04:12:35;2.97;;;1.30;;
56343;SDS011;42245;42.058;24.700;2023-08-08T04:17:48;4.03;;;1.23;;
56343;SDS011;42245;42.058;24.700;2023-08-08T04:20:14;3.33;;;1.25;;
56343;SDS011;42245;42.058;24.700;2023-08-08T04:22:39;1.80;;;1.45;;
56343;SDS011;42245;42.058;24.700;2023-08-08T04:25:05;1.25;;;1.00;;
56343;SDS011;42245;42.058;24.700;2023-08-08T04:27:31;3.03;;;1.40;;
56343;SDS011;42245;42.058;24.700;2023-08-08T04:29:56;1.60;;;1.30;;
56343;SDS011;42245;42.058;24.700;2023-08-08T04:32:22;1.38;;;1.20;;
56343;SDS011;42245;42.058;24.700;2023-08-08T04:34:47;1.48;;;1.20;;
56343;SDS011;42245;42.058;24.700;2023-08-08T04:37:13;5.10;;;1.40;;
56343;SDS011;42245;42.058;24.700;2023-08-08T04:39:38;1.75;;;1.52;;
56343;SDS011;42245;42.058;24.700;2023-08-08T04:42:03;1.90;;;1.38;;
56343;SDS011;42245;42.058;24.700;2023-08-08T04:44:29;3.40;;;1.40;;
56343;SDS011;42245;42.058;24.700;2023-08-08T04:46:55;2.33;;;1.60;;
56343;SDS011;42245;42.058;24.700;2023-08-08T04:49:20;1.80;;;1.40;;
56343;SDS011;42245;42.058;24.700;2023-08-08T04:51:45;2.05;;;1.50;;
56343;SDS011;42245;42.058;24.700;2023-08-08T04:54:11;2.10;;;1.35;;
56343;SDS011;42245;42.058;24.700;2023-08-08T04:56:36;2.20;;;1.73;;
56343;SDS011;42245;42.058;24.700;2023-08-08T04:59:02;1.70;;;1.60;;
56343;SDS011;42245;42.058;24.700;2023-08-08T05:01:27;2.22;;;1.77;;
56343;SDS011;42245;42.058;24.700;2023-08-08T05:03:53;1.95;;;1.60;;
56343;SDS011;42245;42.058;24.700;2023-08-08T05:06:18;2.40;;;1.60;;
56343;SDS011;42245;42.058;24.700;2023-08-08T05:08:44;2.28;;;1.75;;
56343;SDS011;42245;42.058;24.700;2023-08-08T05:11:09;2.60;;;1.70;;
56343;SDS011;42245;42.058;24.700;2023-08-08T05:13:34;2.22;;;1.50;;
56343;SDS011;42245;42.058;24.700;2023-08-08T05:16:00;2.17;;;1.48;;
56343;SDS011;42245;42.058;24.700;2023-08-08T05:18:25;1.83;;;1.40;;
56343;SDS011;42245;42.058;24.700;2023-08-08T05:20:51;1.88;;;1.67;;
56343;SDS011;42245;42.058;24.700;2023-08-08T05:23:16;1.70;;;1.60;;
56343;SDS011;42245;42.058;24.700;2023-08-08T05:25:42;2.00;;;1.67;;
56343;SDS011;42245;42.058;24.700;2023-08-08T05:28:07;2.83;;;1.73;;
56343;SDS011;42245;42.058;24.700;2023-08-08T05:30:32;2.90;;;1.90;;
56343;SDS011;42245;42.058;24.700;2023-08-08T05:32:58;2.00;;;1.80;;
56343;SDS011;42245;42.058;24.700;2023-08-08T05:35:24;3.90;;;1.77;;
56343;SDS011;42245;42.058;24.700;2023-08-08T05:37:49;1.77;;;1.67;;
56343;SDS011;42245;42.058;24.700;2023-08-08T05:40:14;2.20;;;2.00;;
56343;SDS011;42245;42.058;24.700;2023-08-08T05:42:40;2.05;;;1.85;;
56343;SDS011;42245;42.058;24.700;2023-08-08T05:45:05;2.10;;;1.90;;
56343;SDS011;42245;42.058;24.700;2023-08-08T05:47:31;5.07;;;1.98;;
56343;SDS011;42245;42.058;24.700;2023-08-08T05:49:57;4.57;;;2.33;;
56343;SDS011;42245;42.058;24.700;2023-08-08T05:52:22;19.33;;;3.03;;
56343;SDS011;42245;42.058;24.700;2023-08-08T05:54:48;3.20;;;2.60;;
56343;SDS011;42245;42.058;24.700;2023-08-08T05:57:13;3.25;;;2.92;;
56343;SDS011;42245;42.058;24.700;2023-08-08T05:59:38;4.40;;;3.17;;
56343;SDS011;42245;42.058;24.700;2023-08-08T06:02:04;8.63;;;2.97;;
56343;SDS011;42245;42.058;24.700;2023-08-08T06:04:29;4.18;;;2.95;;
56343;SDS011;42245;42.058;24.700;2023-08-08T06:06:55;3.58;;;3.25;;
56343;SDS011;42245;42.058;24.700;2023-08-08T06:09:20;5.10;;;3.35;;
56343;SDS011;42245;42.058;24.700;2023-08-08T06:11:46;13.57;;;4.88;;
56343;SDS011;42245;42.058;24.700;2023-08-08T06:14:11;5.03;;;3.38;;
56343;SDS011;42245;42.058;24.700;2023-08-08T06:16:36;5.22;;;3.08;;
56343;SDS011;42245;42.058;24.700;2023-08-08T06:19:02;5.22;;;3.53;;
56343;SDS011;42245;42.058;24.700;2023-08-08T06:21:28;7.55;;;3.90;;
56343;SDS011;42245;42.058;24.700;2023-08-08T06:23:53;5.10;;;3.80;;
56343;SDS011;42245;42.058;24.700;2023-08-08T06:26:20;3.90;;;3.50;;
56343;SDS011;42245;42.058;24.700;2023-08-08T06:28:46;7.22;;;3.78;;
56343;SDS011;42245;42.058;24.700;2023-08-08T06:31:12;6.93;;;3.72;;
56343;SDS011;42245;42.058;24.700;2023-08-08T06:33:38;7.70;;;3.80;;
56343;SDS011;42245;42.058;24.700;2023-08-08T06:36:03;7.47;;;3.80;;
56343;SDS011;42245;42.058;24.700;2023-08-08T06:38:29;4.45;;;3.90;;
56343;SDS011;42245;42.058;24.700;2023-08-08T06:40:58;4.40;;;3.78;;
56343;SDS011;42245;42.058;24.700;2023-08-08T06:43:24;4.25;;;3.85;;
56343;SDS011;42245;42.058;24.700;2023-08-08T06:45:49;4.18;;;3.65;;
56343;SDS011;42245;42.058;24.700;2023-08-08T06:48:15;4.45;;;3.60;;
56343;SDS011;42245;42.058;24.700;2023-08-08T06:50:40;4.22;;;3.80;;
56343;SDS011;42245;42.058;24.700;2023-08-08T06:53:05;6.13;;;3.40;;
56343;SDS011;42245;42.058;24.700;2023-08-08T06:55:31;4.43;;;3.90;;
56343;SDS011;42245;42.058;24.700;2023-08-08T06:57:56;3.60;;;3.30;;
56343;SDS011;42245;42.058;24.700;2023-08-08T07:00:21;6.43;;;3.70;;
56343;SDS011;42245;42.058;24.700;2023-08-08T07:02:47;3.38;;;3.08;;
56343;SDS011;42245;42.058;24.700;2023-08-08T07:05:12;3.88;;;3.00;;
56343;SDS011;42245;42.058;24.700;2023-08-08T07:07:37;3.90;;;3.47;;
56343;SDS011;42245;42.058;24.700;2023-08-08T07:10:03;3.70;;;3.40;;
56343;SDS011;42245;42.058;24.700;2023-08-08T07:12:29;4.07;;;3.50;;
56343;SDS011;42245;42.058;24.700;2023-08-08T07:14:54;3.95;;;3.55;;
56343;SDS011;42245;42.058;24.700;2023-08-08T07:17:19;3.85;;;3.40;;
56343;SDS011;42245;42.058;24.700;2023-08-08T07:19:45;3.92;;;3.60;;
56343;SDS011;42245;42.058;24.700;2023-08-08T07:22:10;3.72;;;3.42;;
56343;SDS011;42245;42.058;24.700;2023-08-08T07:24:36;3.45;;;3.15;;
56343;SDS011;42245;42.058;24.700;2023-08-08T07:27:03;3.30;;;3.00;;
56343;SDS011;42245;42.058;24.700;2023-08-08T07:29:29;4.63;;;2.90;;
56343;SDS011;42245;42.058;24.700;2023-08-08T07:31:54;7.85;;;2.67;;
56343;SDS011;42245;42.058;24.700;2023-08-08T07:34:20;4.30;;;2.65;;
56343;SDS011;42245;42.058;24.700;2023-08-08T07:36:46;3.72;;;2.90;;
56343;SDS011;42245;42.058;24.700;2023-08-08T07:39:12;2.63;;;2.42;;
56343;SDS011;42245;42.058;24.700;2023-08-08T07:41:37;4.07;;;2.75;;
56343;SDS011;42245;42.058;24.700;2023-08-08T07:44:03;3.00;;;2.80;;
56343;SDS011;42245;42.058;24.700;2023-08-08T07:46:28;4.63;;;2.80;;
56343;SDS011;42245;42.058;24.700;2023-08-08T07:48:54;2.70;;;2.50;;
56343;SDS011;42245;42.058;24.700;2023-08-08T07:51:19;2.65;;;2.45;;
56343;SDS011;42245;42.058;24.700;2023-08-08T07:53:45;3.10;;;2.80;;
56343;SDS011;42245;42.058;24.700;2023-08-08T07:56:10;3.75;;;2.47;;
56343;SDS011;42245;42.058;24.700;2023-08-08T07:58:35;3.28;;;2.70;;
56343;SDS011;42245;42.058;24.700;2023-08-08T08:01:01;4.10;;;2.80;;
56343;SDS011;42245;42.058;24.700;2023-08-08T08:03:26;2.70;;;2.50;;
56343;SDS011;42245;42.058;24.700;2023-08-08T08:05:52;3.00;;;2.70;;
56343;SDS011;42245;42.058;24.700;2023-08-08T08:08:17;2.95;;;2.60;;
56343;SDS011;42245;42.058;24.700;2023-08-08T08:10:43;4.20;;;2.80;;
56343;SDS011;42245;42.058;24.700;2023-08-08T08:16:10;4.85;;;2.78;;
56343;SDS011;42245;42.058;24.700;2023-08-08T08:18:35;3.50;;;3.00;;
56343;SDS011;42245;42.058;24.700;2023-08-08T08:21:01;2.83;;;2.55;;
56343;SDS011;42245;42.058;24.700;2023-08-08T08:23:26;2.67;;;2.47;;
56343;SDS011;42245;42.058;24.700;2023-08-08T08:25:52;3.13;;;2.60;;
56343;SDS011;42245;42.058;24.700;2023-08-08T08:28:17;3.42;;;2.47;;
56343;SDS011;42245;42.058;24.700;2023-08-08T08:30:42;3.67;;;2.33;;
56343;SDS011;42245;42.058;24.700;2023-08-08T08:33:08;3.50;;;3.10;;
56343;SDS011;42245;42.058;24.700;2023-08-08T08:35:34;2.97;;;2.78;;
56343;SDS011;42245;42.058;24.700;2023-08-08T08:38:00;2.92;;;2.35;;
56343;SDS011;42245;42.058;24.700;2023-08-08T08:40:26;3.05;;;2.85;;
56343;SDS011;42245;42.058;24.700;2023-08-08T08:42:53;3.65;;;1.92;;
56343;SDS011;42245;42.058;24.700;2023-08-08T08:45:19;2.60;;;1.73;;
56343;SDS011;42245;42.058;24.700;2023-08-08T08:47:46;1.88;;;1.70;;
56343;SDS011;42245;42.058;24.700;2023-08-08T08:50:15;4.03;;;1.65;;
56343;SDS011;42245;42.058;24.700;2023-08-08T08:52:42;3.42;;;1.50;;
56343;SDS011;42245;42.058;24.700;2023-08-08T08:55:08;1.88;;;1.55;;
56343;SDS011;42245;42.058;24.700;2023-08-08T12:34:49;5.18;;;1.70;;
56343;SDS011;42245;42.058;24.700;2023-08-08T12:37:15;1.38;;;1.27;;
56343;SDS011;42245;42.058;24.700;2023-08-08T12:39:41;1.63;;;1.50;;
56343;SDS011;42245;42.058;24.700;2023-08-08T12:42:06;1.42;;;1.33;;
56343;SDS011;42245;42.058;24.700;2023-08-08T12:44:31;2.58;;;1.35;;
56343;SDS011;42245;42.058;24.700;2023-08-08T12:46:57;2.35;;;1.20;;
56343;SDS011;42245;42.058;24.700;2023-08-08T12:49:22;1.52;;;1.20;;
56343;SDS011;42245;42.058;24.700;2023-08-08T12:51:49;1.67;;;1.50;;
56343;SDS011;42245;42.058;24.700;2023-08-08T12:54:15;1.50;;;1.40;;
56343;SDS011;42245;42.058;24.700;2023-08-08T12:56:40;1.30;;;1.20;;
56343;SDS011;42245;42.058;24.700;2023-08-08T12:59:06;2.10;;;1.33;;
56343;SDS011;42245;42.058;24.700;2023-08-08T13:01:31;1.77;;;1.20;;
56343;SDS011;42245;42.058;24.700;2023-08-08T13:03:57;1.80;;;1.27;;
56343;SDS011;42245;42.058;24.700;2023-08-08T13:06:22;4.97;;;1.60;;
56343;SDS011;42245;42.058;24.700;2023-08-08T13:08:48;3.65;;;1.50;;
56343;SDS011;42245;42.058;24.700;2023-08-08T13:11:13;2.13;;;1.50;;
56343;SDS011;42245;42.058;24.700;2023-08-08T13:13:38;1.63;;;1.52;;
56343;SDS011;42245;42.058;24.700;2023-08-08T13:16:04;1.40;;;1.30;;
56343;SDS011;42245;42.058;24.700;2023-08-08T13:18:29;1.52;;;1.30;;
56343;SDS011;42245;42.058;24.700;2023-08-08T13:20:55;2.28;;;1.38;;
56343;SDS011;42245;42.058;24.700;2023-08-08T13:23:20;2.95;;;1.50;;
56343;SDS011;42245;42.058;24.700;2023-08-08T13:25:46;2.53;;;1.50;;
56343;SDS011;42245;42.058;24.700;2023-08-08T13:28:12;2.22;;;1.40;;
56343;SDS011;42245;42.058;24.700;2023-08-08T13:30:37;2.13;;;1.40;;
56343;SDS011;42245;42.058;24.700;2023-08-08T13:33:03;1.70;;;1.60;;
56343;SDS011;42245;42.058;24.700;2023-08-08T13:35:28;13.15;;;2.53;;
56343;SDS011;42245;42.058;24.700;2023-08-08T13:37:55;1.70;;;1.40;;
56343;SDS011;42245;42.058;24.700;2023-08-08T13:40:20;2.13;;;1.70;;
56343;SDS011;42245;42.058;24.700;2023-08-08T13:42:46;1.48;;;1.38;;
56343;SDS011;42245;42.058;24.700;2023-08-08T13:45:17;1.75;;;1.40;;
56343;SDS011;42245;42.058;24.700;2023-08-08T13:47:43;2.15;;;1.40;;
56343;SDS011;42245;42.058;24.700;2023-08-08T13:50:08;2.40;;;1.73;;
56343;SDS011;42245;42.058;24.700;2023-08-08T13:52:34;1.80;;;1.70;;
56343;SDS011;42245;42.058;24.700;2023-08-08T13:54:59;1.65;;;1.50;;
56343;SDS011;42245;42.058;24.700;2023-08-08T13:57:25;2.20;;;1.40;;
56343;SDS011;42245;42.058;24.700;2023-08-08T13:59:50;3.22;;;1.52;;
56343;SDS011;42245;42.058;24.700;2023-08-08T14:02:16;4.78;;;1.70;;
56343;SDS011;42245;42.058;24.700;2023-08-08T14:04:43;1.65;;;1.42;;
56343;SDS011;42245;42.058;24.700;2023-08-08T14:07:09;2.42;;;1.50;;
56343;SDS011;42245;42.058;24.700;2023-08-08T14:09:35;5.05;;;1.50;;
56343;SDS011;42245;42.058;24.700;2023-08-08T14:12:00;2.08;;;1.50;;
56343;SDS011;42245;42.058;24.700;2023-08-08T14:14:26;1.80;;;1.40;;
56343;SDS011;42245;42.058;24.700;2023-08-08T14:16:51;3.70;;;1.65;;
56343;SDS011;42245;42.058;24.700;2023-08-08T14:19:16;3.30;;;1.50;;
56343;SDS011;42245;42.058;24.700;2023-08-08T14:21:42;3.22;;;1.70;;
56343;SDS011;42245;42.058;24.700;2023-08-08T14:24:07;3.42;;;1.60;;
56343;SDS011;42245;42.058;24.700;2023-08-08T14:26:33;8.70;;;1.80;;
56343;SDS011;42245;42.058;24.700;2023-08-08T14:28:58;3.20;;;1.80;;
56343;SDS011;42245;42.058;24.700;2023-08-08T14:31:24;2.22;;;1.48;;
56343;SDS011;42245;42.058;24.700;2023-08-08T14:33:49;1.85;;;1.65;;
56343;SDS011;42245;42.058;24.700;2023-08-08T14:36:14;2.88;;;1.50;;
56343;SDS011;42245;42.058;24.700;2023-08-08T14:38:40;1.50;;;1.40;;
56343;SDS011;42245;42.058;24.700;2023-08-08T14:41:05;2.72;;;1.50;;
56343;SDS011;42245;42.058;24.700;2023-08-08T14:43:31;1.60;;;1.50;;
56343;SDS011;42245;42.058;24.700;2023-08-08T14:45:56;1.80;;;1.50;;
56343;SDS011;42245;42.058;24.700;2023-08-08T14:48:21;3.22;;;1.70;;
56343;SDS011;42245;42.058;24.700;2023-08-08T14:50:47;3.42;;;1.67;;
56343;SDS011;42245;42.058;24.700;2023-08-08T14:53:13;1.70;;;1.60;;
56343;SDS011;42245;42.058;24.700;2023-08-08T14:55:38;7.97;;;1.90;;
56343;SDS011;42245;42.058;24.700;2023-08-08T14:58:04;2.03;;;1.55;;
56343;SDS011;42245;42.058;24.700;2023-08-08T15:00:29;1.95;;;1.63;;
56343;SDS011;42245;42.058;24.700;2023-08-08T15:02:54;7.70;;;1.63;;
56343;SDS011;42245;42.058;24.700;2023-08-08T15:05:21;2.60;;;1.20;;
56343;SDS011;42245;42.058;24.700;2023-08-08T15:07:46;2.33;;;1.52;;
56343;SDS011;42245;42.058;24.700;2023-08-08T15:10:12;2.45;;;1.40;;
56343;SDS011;42245;42.058;24.700;2023-08-08T15:12:37;3.00;;;1.70;;
56343;SDS011;42245;42.058;24.700;2023-08-08T15:15:03;5.28;;;2.05;;
56343;SDS011;42245;42.058;24.700;2023-08-08T15:17:29;2.55;;;1.55;;
56343;SDS011;42245;42.058;24.700;2023-08-08T15:19:55;3.95;;;1.75;;
56343;SDS011;42245;42.058;24.700;2023-08-08T15:22:20;3.30;;;1.75;;
56343;SDS011;42245;42.058;24.700;2023-08-08T15:24:46;2.45;;;1.55;;
56343;SDS011;42245;42.058;24.700;2023-08-08T15:27:11;10.23;;;2.15;;
56343;SDS011;42245;42.058;24.700;2023-08-08T15:29:37;1.90;;;1.58;;
56343;SDS011;42245;42.058;24.700;2023-08-08T15:32:03;2.70;;;1.60;;
56343;SDS011;42245;42.058;24.700;2023-08-08T15:34:28;2.53;;;1.65;;
56343;SDS011;42245;42.058;24.700;2023-08-08T15:36:55;4.10;;;1.92;;
56343;SDS011;42245;42.058;24.700;2023-08-08T15:39:23;3.85;;;1.52;;
56343;SDS011;42245;42.058;24.700;2023-08-08T15:41:49;2.83;;;1.67;;
56343;SDS011;42245;42.058;24.700;2023-08-08T15:44:14;1.83;;;1.65;;
56343;SDS011;42245;42.058;24.700;2023-08-08T15:46:40;3.60;;;1.60;;
56343;SDS011;42245;42.058;24.700;2023-08-08T15:49:06;4.80;;;1.80;;
56343;SDS011;42245;42.058;24.700;2023-08-08T15:51:32;1.90;;;1.70;;
56343;SDS011;42245;42.058;24.700;2023-08-08T15:53:57;5.78;;;2.15;;
56343;SDS011;42245;42.058;24.700;2023-08-08T15:56:22;2.75;;;1.95;;
56343;SDS011;42245;42.058;24.700;2023-08-08T15:58:48;3.47;;;1.70;;
56343;SDS011;42245;42.058;24.700;2023-08-08T16:01:13;3.85;;;1.80;;
56343;SDS011;42245;42.058;24.700;2023-08-08T16:03:40;6.22;;;1.85;;
56343;SDS011;42245;42.058;24.700;2023-08-08T16:06:06;2.90;;;1.73;;
56343;SDS011;42245;42.058;24.700;2023-08-08T16:08:31;6.22;;;1.80;;
56343;SDS011;42245;42.058;24.700;2023-08-08T16:10:57;3.75;;;1.70;;
56343;SDS011;42245;42.058;24.700;2023-08-08T16:13:22;2.88;;;1.60;;
56343;SDS011;42245;42.058;24.700;2023-08-08T16:15:47;2.03;;;1.63;;
56343;SDS011;42245;42.058;24.700;2023-08-08T16:18:13;2.10;;;1.60;;
56343;SDS011;42245;42.058;24.700;2023-08-08T16:20:39;2.20;;;1.67;;
56343;SDS011;42245;42.058;24.700;2023-08-08T16:23:04;2.67;;;1.55;;
56343;SDS011;42245;42.058;24.700;2023-08-08T16:25:30;3.10;;;1.70;;
56343;SDS011;42245;42.058;24.700;2023-08-08T16:27:55;2.22;;;1.77;;
56343;SDS011;42245;42.058;24.700;2023-08-08T16:30:21;2.72;;;1.83;;
56343;SDS011;42245;42.058;24.700;2023-08-08T16:32:46;2.20;;;1.70;;
56343;SDS011;42245;42.058;24.700;2023-08-08T16:35:11;3.80;;;1.65;;
56343;SDS011;42245;42.058;24.700;2023-08-08T16:37:37;1.83;;;1.50;;
56343;SDS011;42245;42.058;24.700;2023-08-08T16:40:02;6.05;;;1.90;;
56343;SDS011;42245;42.058;24.700;2023-08-08T16:42:28;5.80;;;1.60;;
56343;SDS011;42245;42.058;24.700;2023-08-08T16:44:53;3.20;;;2.03;;
56343;SDS011;42245;42.058;24.700;2023-08-08T16:47:18;6.40;;;1.83;;
56343;SDS011;42245;42.058;24.700;2023-08-08T16:49:44;8.95;;;1.85;;
56343;SDS011;42245;42.058;24.700;2023-08-08T16:52:10;8.00;;;1.85;;
56343;SDS011;42245;42.058;24.700;2023-08-08T16:54:36;8.07;;;1.90;;
56343;SDS011;42245;42.058;24.700;2023-08-08T16:57:01;5.97;;;1.73;;
56343;SDS011;42245;42.058;24.700;2023-08-08T16:59:27;4.07;;;2.00;;
56343;SDS011;42245;42.058;24.700;2023-08-08T17:01:52;4.47;;;1.90;;
56343;SDS011;42245;42.058;24.700;2023-08-08T17:04:18;4.93;;;2.05;;
56343;SDS011;42245;42.058;24.700;2023-08-08T17:06:45;3.67;;;2.00;;
56343;SDS011;42245;42.058;24.700;2023-08-08T17:09:10;5.18;;;1.95;;
56343;SDS011;42245;42.058;24.700;2023-08-08T17:11:37;10.90;;;1.90;;
56343;SDS011;42245;42.058;24.700;2023-08-08T17:14:06;5.28;;;1.90;;
56343;SDS011;42245;42.058;24.700;2023-08-08T17:16:31;6.68;;;1.70;;
56343;SDS011;42245;42.058;24.700;2023-08-08T17:18:57;11.20;;;1.92;;
56343;SDS011;42245;42.058;24.700;2023-08-08T17:21:23;4.15;;;1.52;;
56343;SDS011;42245;42.058;24.700;2023-08-08T17:23:48;15.45;;;2.63;;
56343;SDS011;42245;42.058;24.700;2023-08-08T17:26:13;3.60;;;2.10;;
56343;SDS011;42245;42.058;24.700;2023-08-08T17:28:39;7.57;;;2.35;;
56343;SDS011;42245;42.058;24.700;2023-08-08T17:31:04;4.82;;;2.15;;
56343;SDS011;42245;42.058;24.700;2023-08-08T17:33:30;12.00;;;2.20;;
56343;SDS011;42245;42.058;24.700;2023-08-08T17:35:55;3.10;;;1.90;;
56343;SDS011;42245;42.058;24.700;2023-08-08T17:38:21;2.70;;;2.05;;
56343;SDS011;42245;42.058;24.700;2023-08-08T17:40:46;3.37;;;2.00;;
56343;SDS011;42245;42.058;24.700;2023-08-08T17:43:11;2.10;;;1.83;;
56343;SDS011;42245;42.058;24.700;2023-08-08T17:45:37;3.40;;;1.95;;
56343;SDS011;42245;42.058;24.700;2023-08-08T17:48:02;6.03;;;1.95;;
56343;SDS011;42245;42.058;24.700;2023-08-08T17:50:28;10.38;;;2.30;;
56343;SDS011;42245;42.058;24.700;2023-08-08T17:52:55;3.50;;;1.83;;
56343;SDS011;42245;42.058;24.700;2023-08-08T17:55:20;2.75;;;1.77;;
56343;SDS011;42245;42.058;24.700;2023-08-08T17:57:46;3.08;;;1.77;;
56343;SDS011;42245;42.058;24.700;2023-08-08T18:00:11;4.57;;;1.45;;
56343;SDS011;42245;42.058;24.700;2023-08-08T18:02:37;3.17;;;2.10;;
56343;SDS011;42245;42.058;24.700;2023-08-08T18:05:03;5.35;;;2.05;;
56343;SDS011;42245;42.058;24.700;2023-08-08T18:07:30;3.80;;;1.80;;